sensor_id;sensor_type;location;lat;lon;timestamp;P1;durP1;ratioP1;P2;durP2;ratioP2
61570;SDS011;47463;49.884;10.010;2022-09-28T00:00:00;5;;;3.4;;
61570;SDS011;47463;49.884;10.010;2022-09-28T00:05:00;4.9;;;3.3;;
61570;SDS011;47463;49.884;10.010;2022-09-28T00:10:00;4.9;;;3.3;;
61570;SDS011;47463;49.884;10.010;2022-09-28T00:15:00;6.2;;;3.5;;
61570;SDS011;47463;49.884;10.010;2022-09-28T00:20:00;6.2;;;3.5;;
61570;SDS011;47463;49.884;10.010;2022-09-28T00:25:00;6.5;;;3.6;;
61570;SDS011;47463;49.884;10.010;2022-09-28T00:30:00;6.5;;;3.6;;
61570;SDS011;47463;49.884;10.010;2022-09-28T00:35:00;6;;;3.4;;
61570;SDS011;47463;49.884;10.010;2022-09-28T00:40:00;6;;;3.4;;
61570;SDS011;47463;49.884;10.010;2022-09-28T00:45:00;5.9;;;3;;
61570;SDS011;47463;49.884;10.010;2022-09-28T00:50:00;5.9;;;3;;
61570;SDS011;47463;49.884;10.010;2022-09-28T00:55:00;5.5;;;3;;
61570;SDS011;47463;49.884;10.010;2022-09-28T01:00:00;5.5;;;3;;
61570;SDS011;47463;49.884;10.010;2022-09-28T01:05:00;5.8;;;2.5;;
61570;SDS011;47463;49.884;10.010;2022-09-28T01:10:00;5.8;;;2.5;;
61570;SDS011;47463;49.884;10.010;2022-09-28T01:15:00;4.7;;;2.2;;
61570;SDS011;47463;49.884;10.010;2022-09-28T01:20:05;4.7;;;2.2;;
61570;SDS011;47463;49.884;10.010;2022-09-28T01:25:00;5.5;;;1.7;;
61570;SDS011;47463;49.884;10.010;2022-09-28T01:30:01;5.5;;;1.7;;
61570;SDS011;47463;49.884;10.010;2022-09-28T01:35:01;4.2;;;1.7;;
61570;SDS011;47463;49.884;10.010;2022-09-28T01:40:00;4.2;;;1.7;;
61570;SDS011;47463;49.884;10.010;2022-09-28T01:45:01;3.9;;;1.9;;
61570;SDS011;47463;49.884;10.010;2022-09-28T01:50:01;3.9;;;1.9;;
61570;SDS011;47463;49.884;10.010;2022-09-28T01:55:01;3.9;;;1.4;;
61570;SDS011;47463;49.884;10.010;2022-09-28T02:00:02;3.9;;;1.4;;
61570;SDS011;47463;49.884;10.010;2022-09-28T02:05:01;3.6;;;1.5;;
61570;SDS011;47463;49.884;10.010;2022-09-28T02:10:02;3.6;;;1.5;;
61570;SDS011;47463;49.884;10.010;2022-09-28T02:15:00;4.7;;;2;;
61570;SDS011;47463;49.884;10.010;2022-09-28T02:20:00;4.7;;;2;;
61570;SDS011;47463;49.884;10.010;2022-09-28T02:25:02;3.4;;;1.2;;
61570;SDS011;47463;49.884;10.010;2022-09-28T02:30:00;3.4;;;1.2;;
61570;SDS011;47463;49.884;10.010;2022-09-28T02:35:00;3.5;;;1.2;;
61570;SDS011;47463;49.884;10.010;2022-09-28T02:40:00;3.5;;;1.2;;
61570;SDS011;47463;49.884;10.010;2022-09-28T02:45:03;2.2;;;1.2;;
61570;SDS011;47463;49.884;10.010;2022-09-28T02:50:02;2.2;;;1.2;;
61570;SDS011;47463;49.884;10.010;2022-09-28T02:55:09;1.9;;;1.1;;
61570;SDS011;47463;49.884;10.010;2022-09-28T03:00:03;1.9;;;1.1;;
61570;SDS011;47463;49.884;10.010;2022-09-28T03:05:03;2.7;;;1.3;;
61570;SDS011;47463;49.884;10.010;2022-09-28T03:10:00;2.7;;;1.3;;
61570;SDS011;47463;49.884;10.010;2022-09-28T03:15:09;3.2;;;1.5;;
61570;SDS011;47463;49.884;10.010;2022-09-28T03:20:00;3.2;;;1.5;;
61570;SDS011;47463;49.884;10.010;2022-09-28T03:25:00;3.7;;;1.4;;
61570;SDS011;47463;49.884;10.010;2022-09-28T03:30:00;3.7;;;1.4;;
61570;SDS011;47463;49.884;10.010;2022-09-28T03:35:00;2.8;;;2;;
61570;SDS011;47463;49.884;10.010;2022-09-28T03:40:00;2.8;;;2;;
61570;SDS011;47463;49.884;10.010;2022-09-28T03:45:00;3.5;;;1.7;;
61570;SDS011;47463;49.884;10.010;2022-09-28T03:50:00;3.5;;;1.7;;
61570;SDS011;47463;49.884;10.010;2022-09-28T03:55:00;3.3;;;1.5;;
61570;SDS011;47463;49.884;10.010;2022-09-28T04:00:01;3.3;;;1.5;;
61570;SDS011;47463;49.884;10.010;2022-09-28T04:05:00;3.5;;;2.2;;
61570;SDS011;47463;49.884;10.010;2022-09-28T04:10:00;3.5;;;2.2;;
61570;SDS011;47463;49.884;10.010;2022-09-28T04:15:00;6.4;;;1.7;;
61570;SDS011;47463;49.884;10.010;2022-09-28T04:20:00;6.4;;;1.7;;
61570;SDS011;47463;49.884;10.010;2022-09-28T04:25:00;5.1;;;2.1;;
61570;SDS011;47463;49.884;10.010;2022-09-28T04:30:00;5.1;;;2.1;;
61570;SDS011;47463;49.884;10.010;2022-09-28T04:35:00;3.2;;;1.8;;
61570;SDS011;47463;49.884;10.010;2022-09-28T04:40:00;3.2;;;1.8;;
61570;SDS011;47463;49.884;10.010;2022-09-28T04:45:00;3.6;;;2.5;;
61570;SDS011;47463;49.884;10.010;2022-09-28T04:50:00;3.6;;;2.5;;
61570;SDS011;47463;49.884;10.010;2022-09-28T04:55:00;2.5;;;1.9;;
61570;SDS011;47463;49.884;10.010;2022-09-28T05:00:00;2.5;;;1.9;;
61570;SDS011;47463;49.884;10.010;2022-09-28T05:05:00;3.6;;;2.5;;
61570;SDS011;47463;49.884;10.010;2022-09-28T05:10:00;3.6;;;2.5;;
61570;SDS011;47463;49.884;10.010;2022-09-28T05:15:00;5.9;;;2.1;;
61570;SDS011;47463;49.884;10.010;2022-09-28T05:20:00;5.9;;;2.1;;
61570;SDS011;47463;49.884;10.010;2022-09-28T05:25:00;1.9;;;1.4;;
61570;SDS011;47463;49.884;10.010;2022-09-28T05:30:00;1.9;;;1.4;;
61570;SDS011;47463;49.884;10.010;2022-09-28T05:35:00;2;;;1;;
61570;SDS011;47463;49.884;10.010;2022-09-28T05:40:00;2;;;1;;
61570;SDS011;47463;49.884;10.010;2022-09-28T05:45:00;2.2;;;1;;
61570;SDS011;47463;49.884;10.010;2022-09-28T05:50:00;2.2;;;1;;
61570;SDS011;47463;49.884;10.010;2022-09-28T05:55:00;2.1;;;1;;
61570;SDS011;47463;49.884;10.010;2022-09-28T06:00:00;2.1;;;1;;
61570;SDS011;47463;49.884;10.010;2022-09-28T06:05:00;2.5;;;1.1;;
61570;SDS011;47463;49.884;10.010;2022-09-28T06:10:00;2.5;;;1.1;;
61570;SDS011;47463;49.884;10.010;2022-09-28T06:15:00;2.5;;;0.8;;
61570;SDS011;47463;49.884;10.010;2022-09-28T06:20:00;2.5;;;0.8;;
61570;SDS011;47463;49.884;10.010;2022-09-28T06:25:00;1.7;;;0.9;;
61570;SDS011;47463;49.884;10.010;2022-09-28T06:30:00;1.7;;;0.9;;
61570;SDS011;47463;49.884;10.010;2022-09-28T06:35:00;2.1;;;0.6;;
61570;SDS011;47463;49.884;10.010;2022-09-28T06:40:00;2.1;;;0.6;;
61570;SDS011;47463;49.884;10.010;2022-09-28T06:45:00;1.4;;;0.7;;
61570;SDS011;47463;49.884;10.010;2022-09-28T06:50:00;1.4;;;0.7;;
61570;SDS011;47463;49.884;10.010;2022-09-28T06:55:00;1.8;;;1.1;;
61570;SDS011;47463;49.884;10.010;2022-09-28T07:00:00;1.8;;;1.1;;
61570;SDS011;47463;49.884;10.010;2022-09-28T07:05:00;3.9;;;1.3;;
61570;SDS011;47463;49.884;10.010;2022-09-28T07:10:00;3.9;;;1.3;;
61570;SDS011;47463;49.884;10.010;2022-09-28T07:15:00;3.5;;;1.2;;
61570;SDS011;47463;49.884;10.010;2022-09-28T07:20:00;3.5;;;1.2;;
61570;SDS011;47463;49.884;10.010;2022-09-28T07:25:00;2.4;;;1.3;;
61570;SDS011;47463;49.884;10.010;2022-09-28T07:30:00;2.4;;;1.3;;
61570;SDS011;47463;49.884;10.010;2022-09-28T07:35:00;2.6;;;1.2;;
61570;SDS011;47463;49.884;10.010;2022-09-28T07:40:00;2.6;;;1.2;;
61570;SDS011;47463;49.884;10.010;2022-09-28T07:45:00;2.7;;;1;;
61570;SDS011;47463;49.884;10.010;2022-09-28T07:50:00;2.7;;;1;;
61570;SDS011;47463;49.884;10.010;2022-09-28T07:55:00;4.2;;;1.1;;
61570;SDS011;47463;49.884;10.010;2022-09-28T08:00:00;4.2;;;1.1;;
61570;SDS011;47463;49.884;10.010;2022-09-28T08:05:00;2;;;0.9;;
61570;SDS011;47463;49.884;10.010;2022-09-28T08:10:00;2;;;0.9;;
61570;SDS011;47463;49.884;10.010;2022-09-28T08:15:00;3.1;;;0.9;;
61570;SDS011;47463;49.884;10.010;2022-09-28T08:20:00;3.1;;;0.9;;
61570;SDS011;47463;49.884;10.010;2022-09-28T08:25:00;1.7;;;1;;
61570;SDS011;47463;49.884;10.010;2022-09-28T08:30:00;1.7;;;1;;
61570;SDS011;47463;49.884;10.010;2022-09-28T08:35:00;3.4;;;1.2;;
61570;SDS011;47463;49.884;10.010;2022-09-28T08:40:00;3.4;;;1.2;;
61570;SDS011;47463;49.884;10.010;2022-09-28T08:45:04;3.2;;;1.3;;
61570;SDS011;47463;49.884;10.010;2022-09-28T08:50:00;3.2;;;1.3;;
61570;SDS011;47463;49.884;10.010;2022-09-28T08:55:01;3.2;;;1.6;;
61570;SDS011;47463;49.884;10.010;2022-09-28T09:00:00;3.2;;;1.6;;
61570;SDS011;47463;49.884;10.010;2022-09-28T09:05:01;3.7;;;1.6;;
61570;SDS011;47463;49.884;10.010;2022-09-28T09:10:02;3.7;;;1.6;;
61570;SDS011;47463;49.884;10.010;2022-09-28T09:15:06;1.7;;;1.4;;
61570;SDS011;47463;49.884;10.010;2022-09-28T09:20:02;1.7;;;1.4;;
61570;SDS011;47463;49.884;10.010;2022-09-28T09:25:02;2.4;;;1.2;;
61570;SDS011;47463;49.884;10.010;2022-09-28T09:30:02;2.4;;;1.2;;
61570;SDS011;47463;49.884;10.010;2022-09-28T09:35:04;2.5;;;1.1;;
61570;SDS011;47463;49.884;10.010;2022-09-28T09:40:03;2.5;;;1.1;;
61570;SDS011;47463;49.884;10.010;2022-09-28T09:45:04;3.3;;;1;;
61570;SDS011;47463;49.884;10.010;2022-09-28T09:50:00;3.3;;;1;;
61570;SDS011;47463;49.884;10.010;2022-09-28T09:55:01;4.1;;;1.5;;
61570;SDS011;47463;49.884;10.010;2022-09-28T10:00:00;4.1;;;1.5;;
61570;SDS011;47463;49.884;10.010;2022-09-28T10:05:01;2.8;;;1.5;;
61570;SDS011;47463;49.884;10.010;2022-09-28T10:10:00;2.8;;;1.5;;
61570;SDS011;47463;49.884;10.010;2022-09-28T10:15:00;2.7;;;1.4;;
61570;SDS011;47463;49.884;10.010;2022-09-28T10:20:00;2.7;;;1.4;;
61570;SDS011;47463;49.884;10.010;2022-09-28T10:25:00;4.3;;;1.4;;
61570;SDS011;47463;49.884;10.010;2022-09-28T10:30:01;4.3;;;1.4;;
61570;SDS011;47463;49.884;10.010;2022-09-28T10:35:10;1.9;;;1.4;;
61570;SDS011;47463;49.884;10.010;2022-09-28T10:40:00;1.9;;;1.4;;
61570;SDS011;47463;49.884;10.010;2022-09-28T10:45:02;2.9;;;1.4;;
61570;SDS011;47463;49.884;10.010;2022-09-28T10:50:00;2.9;;;1.4;;
61570;SDS011;47463;49.884;10.010;2022-09-28T10:55:00;2.2;;;1.6;;
61570;SDS011;47463;49.884;10.010;2022-09-28T11:00:00;2.2;;;1.6;;
61570;SDS011;47463;49.884;10.010;2022-09-28T11:05:00;2.5;;;1.4;;
61570;SDS011;47463;49.884;10.010;2022-09-28T11:10:00;2.5;;;1.4;;
61570;SDS011;47463;49.884;10.010;2022-09-28T11:15:00;2.9;;;1.1;;
61570;SDS011;47463;49.884;10.010;2022-09-28T11:20:00;2.9;;;1.1;;
61570;SDS011;47463;49.884;10.010;2022-09-28T11:25:11;2.5;;;1.1;;
61570;SDS011;47463;49.884;10.010;2022-09-28T11:30:00;2.5;;;1.1;;
61570;SDS011;47463;49.884;10.010;2022-09-28T11:35:00;2.2;;;1.1;;
61570;SDS011;47463;49.884;10.010;2022-09-28T11:40:02;2.2;;;1.1;;
61570;SDS011;47463;49.884;10.010;2022-09-28T11:45:02;2;;;0.8;;
61570;SDS011;47463;49.884;10.010;2022-09-28T11:50:00;2;;;0.8;;
61570;SDS011;47463;49.884;10.010;2022-09-28T11:55:00;3.5;;;1;;
61570;SDS011;47463;49.884;10.010;2022-09-28T12:00:00;3.5;;;1;;
61570;SDS011;47463;49.884;10.010;2022-09-28T12:05:02;1.3;;;0.8;;
61570;SDS011;47463;49.884;10.010;2022-09-28T12:10:02;1.3;;;0.8;;
61570;SDS011;47463;49.884;10.010;2022-09-28T12:15:02;1.7;;;0.9;;
61570;SDS011;47463;49.884;10.010;2022-09-28T12:20:00;1.7;;;0.9;;
61570;SDS011;47463;49.884;10.010;2022-09-28T12:25:00;1.7;;;0.8;;
61570;SDS011;47463;49.884;10.010;2022-09-28T12:30:01;1.7;;;0.8;;
61570;SDS011;47463;49.884;10.010;2022-09-28T12:35:00;2.5;;;0.9;;
61570;SDS011;47463;49.884;10.010;2022-09-28T12:40:05;2.5;;;0.9;;
61570;SDS011;47463;49.884;10.010;2022-09-28T12:45:04;1.7;;;0.7;;
61570;SDS011;47463;49.884;10.010;2022-09-28T12:50:03;1.7;;;0.7;;
61570;SDS011;47463;49.884;10.010;2022-09-28T12:55:04;2.3;;;0.8;;
61570;SDS011;47463;49.884;10.010;2022-09-28T13:00:02;2.3;;;0.8;;
61570;SDS011;47463;49.884;10.010;2022-09-28T13:05:03;2.2;;;0.9;;
61570;SDS011;47463;49.884;10.010;2022-09-28T13:10:02;2.2;;;0.9;;
61570;SDS011;47463;49.884;10.010;2022-09-28T13:20:02;4.2;;;1.3;;
61570;SDS011;47463;49.884;10.010;2022-09-28T13:25:01;1.4;;;0.7;;
61570;SDS011;47463;49.884;10.010;2022-09-28T13:30:00;1.4;;;0.7;;
61570;SDS011;47463;49.884;10.010;2022-09-28T13:35:00;1.9;;;0.7;;
61570;SDS011;47463;49.884;10.010;2022-09-28T13:40:00;1.9;;;0.7;;
61570;SDS011;47463;49.884;10.010;2022-09-28T13:45:04;1.8;;;0.9;;
61570;SDS011;47463;49.884;10.010;2022-09-28T13:50:03;1.8;;;0.9;;
61570;SDS011;47463;49.884;10.010;2022-09-28T13:55:02;1.5;;;0.8;;
61570;SDS011;47463;49.884;10.010;2022-09-28T14:00:01;1.5;;;0.8;;
61570;SDS011;47463;49.884;10.010;2022-09-28T14:05:00;1;;;0.7;;
61570;SDS011;47463;49.884;10.010;2022-09-28T14:10:12;1;;;0.7;;
61570;SDS011;47463;49.884;10.010;2022-09-28T14:15:00;1.9;;;0.7;;
61570;SDS011;47463;49.884;10.010;2022-09-28T14:20:01;1.9;;;0.7;;
61570;SDS011;47463;49.884;10.010;2022-09-28T14:25:02;1.5;;;0.9;;
61570;SDS011;47463;49.884;10.010;2022-09-28T14:30:18;1.5;;;0.9;;
61570;SDS011;47463;49.884;10.010;2022-09-28T14:35:00;1.5;;;0.7;;
61570;SDS011;47463;49.884;10.010;2022-09-28T14:40:00;1.5;;;0.7;;
61570;SDS011;47463;49.884;10.010;2022-09-28T14:45:32;2.3;;;0.6;;
61570;SDS011;47463;49.884;10.010;2022-09-28T14:50:00;2.3;;;0.6;;
61570;SDS011;47463;49.884;10.010;2022-09-28T14:55:00;2.6;;;1.2;;
61570;SDS011;47463;49.884;10.010;2022-09-28T15:00:00;2.6;;;1.2;;
61570;SDS011;47463;49.884;10.010;2022-09-28T15:05:06;1.2;;;0.7;;
61570;SDS011;47463;49.884;10.010;2022-09-28T15:10:00;1.2;;;0.7;;
61570;SDS011;47463;49.884;10.010;2022-09-28T15:15:00;1.2;;;0.9;;
61570;SDS011;47463;49.884;10.010;2022-09-28T15:20:03;1.2;;;0.9;;
61570;SDS011;47463;49.884;10.010;2022-09-28T15:25:00;1.4;;;0.9;;
61570;SDS011;47463;49.884;10.010;2022-09-28T15:30:01;1.4;;;0.9;;
61570;SDS011;47463;49.884;10.010;2022-09-28T15:35:07;2.6;;;0.8;;
61570;SDS011;47463;49.884;10.010;2022-09-28T15:40:00;2.6;;;0.8;;
61570;SDS011;47463;49.884;10.010;2022-09-28T15:45:01;1.4;;;0.7;;
61570;SDS011;47463;49.884;10.010;2022-09-28T15:50:00;1.4;;;0.7;;
61570;SDS011;47463;49.884;10.010;2022-09-28T15:55:00;1.2;;;0.8;;
61570;SDS011;47463;49.884;10.010;2022-09-28T16:00:00;1.2;;;0.8;;
61570;SDS011;47463;49.884;10.010;2022-09-28T16:05:00;1.4;;;0.8;;
61570;SDS011;47463;49.884;10.010;2022-09-28T16:10:03;1.4;;;0.8;;
61570;SDS011;47463;49.884;10.010;2022-09-28T16:15:02;1.3;;;0.9;;
61570;SDS011;47463;49.884;10.010;2022-09-28T16:20:00;1.3;;;0.9;;
61570;SDS011;47463;49.884;10.010;2022-09-28T16:25:00;3.7;;;1.1;;
61570;SDS011;47463;49.884;10.010;2022-09-28T16:30:03;3.7;;;1.1;;
61570;SDS011;47463;49.884;10.010;2022-09-28T16:35:06;2.3;;;1;;
61570;SDS011;47463;49.884;10.010;2022-09-28T16:40:00;2.3;;;1;;
61570;SDS011;47463;49.884;10.010;2022-09-28T16:45:00;2.5;;;0.9;;
61570;SDS011;47463;49.884;10.010;2022-09-28T16:50:00;2.5;;;0.9;;
61570;SDS011;47463;49.884;10.010;2022-09-28T16:55:00;2.4;;;1.4;;
61570;SDS011;47463;49.884;10.010;2022-09-28T17:00:00;2.4;;;1.4;;
61570;SDS011;47463;49.884;10.010;2022-09-28T17:05:00;2.1;;;1.1;;
61570;SDS011;47463;49.884;10.010;2022-09-28T17:10:00;2.1;;;1.1;;
61570;SDS011;47463;49.884;10.010;2022-09-28T17:15:00;3.7;;;1.2;;
61570;SDS011;47463;49.884;10.010;2022-09-28T17:20:00;3.7;;;1.2;;
61570;SDS011;47463;49.884;10.010;2022-09-28T17:25:00;2.4;;;1.2;;
61570;SDS011;47463;49.884;10.010;2022-09-28T17:30:00;2.4;;;1.2;;
61570;SDS011;47463;49.884;10.010;2022-09-28T17:35:00;2.9;;;1.2;;
61570;SDS011;47463;49.884;10.010;2022-09-28T17:40:00;2.9;;;1.2;;
61570;SDS011;47463;49.884;10.010;2022-09-28T17:45:00;4.4;;;1.5;;
61570;SDS011;47463;49.884;10.010;2022-09-28T17:50:00;4.4;;;1.5;;
61570;SDS011;47463;49.884;10.010;2022-09-28T17:55:00;3.6;;;1.3;;
61570;SDS011;47463;49.884;10.010;2022-09-28T18:00:00;3.6;;;1.3;;
61570;SDS011;47463;49.884;10.010;2022-09-28T18:05:00;5.7;;;1.2;;
61570;SDS011;47463;49.884;10.010;2022-09-28T18:10:00;5.7;;;1.2;;
61570;SDS011;47463;49.884;10.010;2022-09-28T18:15:00;3.9;;;1.4;;
61570;SDS011;47463;49.884;10.010;2022-09-28T18:20:00;3.9;;;1.4;;
61570;SDS011;47463;49.884;10.010;2022-09-28T18:25:00;3.1;;;1.4;;
61570;SDS011;47463;49.884;10.010;2022-09-28T18:30:00;3.1;;;1.4;;
61570;SDS011;47463;49.884;10.010;2022-09-28T18:35:00;5.9;;;1.7;;
61570;SDS011;47463;49.884;10.010;2022-09-28T18:40:00;5.9;;;1.7;;
61570;SDS011;47463;49.884;10.010;2022-09-28T18:45:00;3.4;;;1.5;;
61570;SDS011;47463;49.884;10.010;2022-09-28T18:50:00;3.4;;;1.5;;
61570;SDS011;47463;49.884;10.010;2022-09-28T18:55:00;3.4;;;1.6;;
61570;SDS011;47463;49.884;10.010;2022-09-28T19:00:00;3.4;;;1.6;;
61570;SDS011;47463;49.884;10.010;2022-09-28T19:05:00;2.9;;;1.3;;
61570;SDS011;47463;49.884;10.010;2022-09-28T19:10:00;2.9;;;1.3;;
61570;SDS011;47463;49.884;10.010;2022-09-28T19:15:00;2;;;1.4;;
61570;SDS011;47463;49.884;10.010;2022-09-28T19:20:00;2;;;1.4;;
61570;SDS011;47463;49.884;10.010;2022-09-28T19:25:00;2.7;;;1.4;;
61570;SDS011;47463;49.884;10.010;2022-09-28T19:30:00;2.7;;;1.4;;
61570;SDS011;47463;49.884;10.010;2022-09-28T19:35:00;2.7;;;1.3;;
61570;SDS011;47463;49.884;10.010;2022-09-28T19:40:00;2.7;;;1.3;;
61570;SDS011;47463;49.884;10.010;2022-09-28T19:45:00;4.3;;;1.5;;
61570;SDS011;47463;49.884;10.010;2022-09-28T19:50:00;4.3;;;1.5;;
61570;SDS011;47463;49.884;10.010;2022-09-28T19:55:00;4.2;;;2.1;;
61570;SDS011;47463;49.884;10.010;2022-09-28T20:00:00;4.2;;;2.1;;
61570;SDS011;47463;49.884;10.010;2022-09-28T20:05:00;7.7;;;4;;
61570;SDS011;47463;49.884;10.010;2022-09-28T20:10:00;7.7;;;4;;
61570;SDS011;47463;49.884;10.010;2022-09-28T20:15:00;4.1;;;2;;
61570;SDS011;47463;49.884;10.010;2022-09-28T20:20:00;4.1;;;2;;
61570;SDS011;47463;49.884;10.010;2022-09-28T20:25:00;5.8;;;2.7;;
61570;SDS011;47463;49.884;10.010;2022-09-28T20:30:00;5.8;;;2.7;;
61570;SDS011;47463;49.884;10.010;2022-09-28T20:35:00;5.6;;;3.4;;
61570;SDS011;47463;49.884;10.010;2022-09-28T20:40:00;5.6;;;3.4;;
61570;SDS011;47463;49.884;10.010;2022-09-28T20:45:00;5.2;;;2.8;;
61570;SDS011;47463;49.884;10.010;2022-09-28T20:50:00;5.2;;;2.8;;
61570;SDS011;47463;49.884;10.010;2022-09-28T20:55:00;5.6;;;2.8;;
61570;SDS011;47463;49.884;10.010;2022-09-28T21:00:00;5.6;;;2.8;;
61570;SDS011;47463;49.884;10.010;2022-09-28T21:05:00;4.9;;;2.8;;
61570;SDS011;47463;49.884;10.010;2022-09-28T21:10:00;4.9;;;2.8;;
61570;SDS011;47463;49.884;10.010;2022-09-28T21:15:00;4.4;;;2.6;;
61570;SDS011;47463;49.884;10.010;2022-09-28T21:20:00;4.4;;;2.6;;
61570;SDS011;47463;49.884;10.010;2022-09-28T21:25:00;4.9;;;2.6;;
61570;SDS011;47463;49.884;10.010;2022-09-28T21:30:00;4.9;;;2.6;;
61570;SDS011;47463;49.884;10.010;2022-09-28T21:35:00;7;;;3.2;;
61570;SDS011;47463;49.884;10.010;2022-09-28T21:40:00;7;;;3.2;;
61570;SDS011;47463;49.884;10.010;2022-09-28T21:45:00;6.9;;;3.4;;
61570;SDS011;47463;49.884;10.010;2022-09-28T21:50:00;6.9;;;3.4;;
61570;SDS011;47463;49.884;10.010;2022-09-28T21:55:00;6.4;;;3.9;;
61570;SDS011;47463;49.884;10.010;2022-09-28T22:00:00;6.4;;;3.9;;
61570;SDS011;47463;49.884;10.010;2022-09-28T22:05:00;5.6;;;3.5;;
61570;SDS011;47463;49.884;10.010;2022-09-28T22:10:00;5.6;;;3.5;;
61570;SDS011;47463;49.884;10.010;2022-09-28T22:15:00;6.3;;;3.4;;
61570;SDS011;47463;49.884;10.010;2022-09-28T22:20:00;6.3;;;3.4;;
61570;SDS011;47463;49.884;10.010;2022-09-28T22:25:00;4;;;3.1;;
61570;SDS011;47463;49.884;10.010;2022-09-28T22:30:00;4;;;3.1;;
61570;SDS011;47463;49.884;10.010;2022-09-28T22:35:00;6;;;3.4;;
61570;SDS011;47463;49.884;10.010;2022-09-28T22:40:00;6;;;3.4;;
61570;SDS011;47463;49.884;10.010;2022-09-28T22:45:00;7.2;;;3.3;;
61570;SDS011;47463;49.884;10.010;2022-09-28T22:50:00;7.2;;;3.3;;
61570;SDS011;47463;49.884;10.010;2022-09-28T22:55:00;16.5;;;7;;
61570;SDS011;47463;49.884;10.010;2022-09-28T23:00:00;16.5;;;7;;
61570;SDS011;47463;49.884;10.010;2022-09-28T23:05:00;15.2;;;6.5;;
61570;SDS011;47463;49.884;10.010;2022-09-28T23:10:00;15.2;;;6.5;;
61570;SDS011;47463;49.884;10.010;2022-09-28T23:15:00;9;;;4.4;;
61570;SDS011;47463;49.884;10.010;2022-09-28T23:20:00;9;;;4.4;;
61570;SDS011;47463;49.884;10.010;2022-09-28T23:25:00;8.7;;;4;;
61570;SDS011;47463;49.884;10.010;2022-09-28T23:30:00;8.7;;;4;;
61570;SDS011;47463;49.884;10.010;2022-09-28T23:35:00;7.5;;;4.9;;
61570;SDS011;47463;49.884;10.010;2022-09-28T23:40:00;7.5;;;4.9;;
61570;SDS011;47463;49.884;10.010;2022-09-28T23:45:00;6.3;;;4.7;;
61570;SDS011;47463;49.884;10.010;2022-09-28T23:50:00;6.3;;;4.7;;
61570;SDS011;47463;49.884;10.010;2022-09-28T23:55:00;8.2;;;5;;
